sensor_id;sensor_type;location;lat;lon;timestamp;pressure;altitude;pressure_sealevel;temperature;humidity
53546;BME280;39432;51.902;10.844;2023-10-09T00:00:21;99969.78;;;12.58;100.00
53546;BME280;39432;51.902;10.844;2023-10-09T00:03:38;99948.63;;;12.21;100.00
53546;BME280;39432;51.902;10.844;2023-10-09T00:06:29;99943.34;;;12.15;100.00
53546;BME280;39432;51.902;10.844;2023-10-09T00:09:25;99956.00;;;12.48;100.00
53546;BME280;39432;51.902;10.844;2023-10-09T00:12:28;99942.59;;;12.24;100.00
53546;BME280;39432;51.902;10.844;2023-10-09T00:15:22;99953.75;;;13.19;100.00
53546;BME280;39432;51.902;10.844;2023-10-09T00:18:15;99951.78;;;12.40;100.00
53546;BME280;39432;51.902;10.844;2023-10-09T00:21:13;99944.88;;;12.32;100.00
53546;BME280;39432;51.902;10.844;2023-10-09T00:24:07;99943.88;;;12.44;100.00
53546;BME280;39432;51.902;10.844;2023-10-09T00:27:01;99915.75;;;12.26;100.00
53546;BME280;39432;51.902;10.844;2023-10-09T00:29:59;99905.34;;;12.01;100.00
53546;BME280;39432;51.902;10.844;2023-10-09T00:32:56;99897.28;;;11.90;100.00
53546;BME280;39432;51.902;10.844;2023-10-09T00:35:54;99890.09;;;12.10;100.00
53546;BME280;39432;51.902;10.844;2023-10-09T00:38:45;99883.19;;;12.08;100.00
53546;BME280;39432;51.902;10.844;2023-10-09T00:41:38;99880.66;;;12.33;100.00
53546;BME280;39432;51.902;10.844;2023-10-09T00:44:29;99876.50;;;12.26;100.00
53546;BME280;39432;51.902;10.844;2023-10-09T00:47:25;99866.31;;;12.58;100.00
53546;BME280;39432;51.902;10.844;2023-10-09T00:50:24;99865.69;;;12.14;100.00
53546;BME280;39432;51.902;10.844;2023-10-09T00:53:22;99836.91;;;12.54;100.00
53546;BME280;39432;51.902;10.844;2023-10-09T00:56:19;99846.00;;;12.22;100.00
53546;BME280;39432;51.902;10.844;2023-10-09T00:59:16;99809.47;;;12.54;100.00
53546;BME280;39432;51.902;10.844;2023-10-09T01:02:07;99812.50;;;12.15;100.00
53546;BME280;39432;51.902;10.844;2023-10-09T01:04:58;99826.34;;;11.98;100.00
53546;BME280;39432;51.902;10.844;2023-10-09T01:08:00;99825.28;;;12.36;100.00
53546;BME280;39432;51.902;10.844;2023-10-09T01:11:03;99827.66;;;11.91;100.00
53546;BME280;39432;51.902;10.844;2023-10-09T01:14:05;99810.94;;;12.29;100.00
53546;BME280;39432;51.902;10.844;2023-10-09T01:17:02;99796.13;;;12.30;100.00
53546;BME280;39432;51.902;10.844;2023-10-09T01:19:56;99779.38;;;12.79;100.00
53546;BME280;39432;51.902;10.844;2023-10-09T01:22:51;99780.94;;;12.60;100.00
53546;BME280;39432;51.902;10.844;2023-10-09T01:25:45;99787.06;;;12.77;100.00
53546;BME280;39432;51.902;10.844;2023-10-09T01:28:37;99792.28;;;12.26;100.00
53546;BME280;39432;51.902;10.844;2023-10-09T01:31:30;99772.44;;;12.14;100.00
53546;BME280;39432;51.902;10.844;2023-10-09T01:34:32;99765.81;;;12.47;100.00
53546;BME280;39432;51.902;10.844;2023-10-09T01:37:29;99750.47;;;12.14;100.00
53546;BME280;39432;51.902;10.844;2023-10-09T01:40:24;99744.63;;;12.43;100.00
53546;BME280;39432;51.902;10.844;2023-10-09T01:43:27;99741.28;;;12.93;100.00
53546;BME280;39432;51.902;10.844;2023-10-09T01:46:17;99738.72;;;12.71;100.00
53546;BME280;39432;51.902;10.844;2023-10-09T01:49:07;99738.16;;;12.17;100.00
53546;BME280;39432;51.902;10.844;2023-10-09T01:52:05;99744.41;;;12.07;100.00
53546;BME280;39432;51.902;10.844;2023-10-09T01:54:57;99750.16;;;12.48;100.00
53546;BME280;39432;51.902;10.844;2023-10-09T01:57:54;99756.13;;;12.39;100.00
53546;BME280;39432;51.902;10.844;2023-10-09T02:00:48;99761.72;;;12.55;100.00
53546;BME280;39432;51.902;10.844;2023-10-09T02:03:42;99744.31;;;13.02;100.00
53546;BME280;39432;51.902;10.844;2023-10-09T02:06:33;99754.72;;;12.95;100.00
53546;BME280;39432;51.902;10.844;2023-10-09T02:09:25;99757.34;;;13.27;100.00
53546;BME280;39432;51.902;10.844;2023-10-09T02:12:18;99753.97;;;12.47;100.00
53546;BME280;39432;51.902;10.844;2023-10-09T02:15:10;99766.47;;;12.75;100.00
53546;BME280;39432;51.902;10.844;2023-10-09T02:18:06;99767.19;;;12.55;100.00
53546;BME280;39432;51.902;10.844;2023-10-09T02:21:05;99765.22;;;13.18;100.00
53546;BME280;39432;51.902;10.844;2023-10-09T02:24:15;99750.34;;;12.93;100.00
53546;BME280;39432;51.902;10.844;2023-10-09T02:27:14;99743.72;;;12.84;100.00
53546;BME280;39432;51.902;10.844;2023-10-09T02:30:14;99747.06;;;13.07;100.00
53546;BME280;39432;51.902;10.844;2023-10-09T02:33:17;99746.00;;;13.13;100.00
53546;BME280;39432;51.902;10.844;2023-10-09T02:36:15;99749.94;;;13.37;100.00
53546;BME280;39432;51.902;10.844;2023-10-09T02:39:05;99733.94;;;13.19;100.00
53546;BME280;39432;51.902;10.844;2023-10-09T02:42:11;99724.66;;;13.96;100.00
53546;BME280;39432;51.902;10.844;2023-10-09T02:45:11;99729.63;;;13.64;100.00
53546;BME280;39432;51.902;10.844;2023-10-09T02:48:11;99706.69;;;12.92;100.00
53546;BME280;39432;51.902;10.844;2023-10-09T02:51:05;99715.22;;;13.11;100.00
53546;BME280;39432;51.902;10.844;2023-10-09T02:54:03;99709.25;;;13.34;100.00
53546;BME280;39432;51.902;10.844;2023-10-09T02:57:15;99697.06;;;13.00;100.00
53546;BME280;39432;51.902;10.844;2023-10-09T03:00:10;99691.25;;;12.76;100.00
53546;BME280;39432;51.902;10.844;2023-10-09T03:03:07;99692.75;;;13.85;100.00
53546;BME280;39432;51.902;10.844;2023-10-09T03:05:57;99683.97;;;13.27;100.00
53546;BME280;39432;51.902;10.844;2023-10-09T03:08:51;99685.47;;;12.77;100.00
53546;BME280;39432;51.902;10.844;2023-10-09T03:11:43;99680.41;;;12.38;100.00
53546;BME280;39432;51.902;10.844;2023-10-09T03:14:37;99677.34;;;12.30;100.00
53546;BME280;39432;51.902;10.844;2023-10-09T03:17:29;99686.53;;;12.66;100.00
53546;BME280;39432;51.902;10.844;2023-10-09T03:20:21;99680.19;;;12.55;100.00
53546;BME280;39432;51.902;10.844;2023-10-09T03:23:12;99681.19;;;12.29;100.00
53546;BME280;39432;51.902;10.844;2023-10-09T03:26:05;99685.06;;;12.38;100.00
53546;BME280;39432;51.902;10.844;2023-10-09T03:29:07;99690.31;;;12.45;100.00
53546;BME280;39432;51.902;10.844;2023-10-09T03:31:57;99682.00;;;12.29;100.00
53546;BME280;39432;51.902;10.844;2023-10-09T03:34:48;99686.06;;;11.79;100.00
53546;BME280;39432;51.902;10.844;2023-10-09T03:37:38;99693.03;;;12.39;100.00
53546;BME280;39432;51.902;10.844;2023-10-09T03:40:29;99672.09;;;12.23;100.00
53546;BME280;39432;51.902;10.844;2023-10-09T03:43:24;99667.69;;;12.17;100.00
53546;BME280;39432;51.902;10.844;2023-10-09T03:46:19;99672.63;;;12.15;100.00
53546;BME280;39432;51.902;10.844;2023-10-09T03:49:14;99674.84;;;13.06;100.00
53546;BME280;39432;51.902;10.844;2023-10-09T03:52:10;99658.50;;;12.54;100.00
53546;BME280;39432;51.902;10.844;2023-10-09T03:55:05;99662.75;;;12.24;100.00
53546;BME280;39432;51.902;10.844;2023-10-09T03:57:58;99664.81;;;12.49;100.00
53546;BME280;39432;51.902;10.844;2023-10-09T04:00:51;99660.78;;;12.77;100.00
53546;BME280;39432;51.902;10.844;2023-10-09T04:03:42;99650.38;;;13.05;100.00
53546;BME280;39432;51.902;10.844;2023-10-09T04:06:33;99652.06;;;13.16;100.00
53546;BME280;39432;51.902;10.844;2023-10-09T04:09:25;99636.63;;;12.95;100.00
53546;BME280;39432;51.902;10.844;2023-10-09T04:12:27;99630.56;;;12.72;100.00
53546;BME280;39432;51.902;10.844;2023-10-09T04:15:18;99615.16;;;12.61;100.00
53546;BME280;39432;51.902;10.844;2023-10-09T04:18:13;99626.78;;;13.39;100.00
53546;BME280;39432;51.902;10.844;2023-10-09T04:21:06;99609.16;;;12.69;100.00
53546;BME280;39432;51.902;10.844;2023-10-09T04:24:07;99592.69;;;12.89;100.00
53546;BME280;39432;51.902;10.844;2023-10-09T04:27:12;99607.97;;;12.39;100.00
53546;BME280;39432;51.902;10.844;2023-10-09T04:30:06;99620.94;;;12.59;100.00
53546;BME280;39432;51.902;10.844;2023-10-09T04:33:03;99626.13;;;12.56;100.00
53546;BME280;39432;51.902;10.844;2023-10-09T04:36:16;99633.00;;;12.53;100.00
53546;BME280;39432;51.902;10.844;2023-10-09T04:39:16;99630.03;;;12.75;100.00
53546;BME280;39432;51.902;10.844;2023-10-09T04:42:24;99644.34;;;12.92;100.00
53546;BME280;39432;51.902;10.844;2023-10-09T04:45:36;99645.34;;;12.61;100.00
53546;BME280;39432;51.902;10.844;2023-10-09T04:48:38;99650.09;;;12.13;100.00
53546;BME280;39432;51.902;10.844;2023-10-09T04:51:36;99660.16;;;12.55;100.00
53546;BME280;39432;51.902;10.844;2023-10-09T04:54:24;99652.00;;;12.75;100.00
53546;BME280;39432;51.902;10.844;2023-10-09T04:57:27;99659.53;;;12.32;100.00
53546;BME280;39432;51.902;10.844;2023-10-09T05:00:25;99652.75;;;12.55;100.00
53546;BME280;39432;51.902;10.844;2023-10-09T05:03:34;99652.53;;;12.72;100.00
53546;BME280;39432;51.902;10.844;2023-10-09T05:06:36;99645.88;;;12.58;100.00
53546;BME280;39432;51.902;10.844;2023-10-09T05:09:38;99653.00;;;12.49;100.00
53546;BME280;39432;51.902;10.844;2023-10-09T05:12:43;99663.06;;;12.28;100.00
53546;BME280;39432;51.902;10.844;2023-10-09T05:15:34;99665.03;;;12.37;100.00
53546;BME280;39432;51.902;10.844;2023-10-09T05:18:33;99671.75;;;12.72;100.00
53546;BME280;39432;51.902;10.844;2023-10-09T05:21:25;99677.84;;;12.95;100.00
53546;BME280;39432;51.902;10.844;2023-10-09T05:24:26;99678.25;;;12.51;100.00
53546;BME280;39432;51.902;10.844;2023-10-09T05:27:30;99681.00;;;12.56;100.00
53546;BME280;39432;51.902;10.844;2023-10-09T05:30:38;99688.97;;;12.57;100.00
53546;BME280;39432;51.902;10.844;2023-10-09T05:33:29;99700.19;;;13.85;100.00
53546;BME280;39432;51.902;10.844;2023-10-09T05:36:21;99679.44;;;12.70;100.00
53546;BME280;39432;51.902;10.844;2023-10-09T05:39:19;99691.81;;;12.83;100.00
53546;BME280;39432;51.902;10.844;2023-10-09T05:42:32;99703.72;;;13.29;100.00
53546;BME280;39432;51.902;10.844;2023-10-09T05:45:31;99699.56;;;13.16;100.00
53546;BME280;39432;51.902;10.844;2023-10-09T05:48:33;99709.19;;;13.14;100.00
53546;BME280;39432;51.902;10.844;2023-10-09T05:51:38;99710.34;;;13.28;100.00
53546;BME280;39432;51.902;10.844;2023-10-09T05:54:33;99721.53;;;13.11;100.00
53546;BME280;39432;51.902;10.844;2023-10-09T05:57:41;99725.66;;;13.04;100.00
53546;BME280;39432;51.902;10.844;2023-10-09T06:00:47;99738.81;;;13.02;100.00
53546;BME280;39432;51.902;10.844;2023-10-09T06:03:50;99752.56;;;13.02;100.00
53546;BME280;39432;51.902;10.844;2023-10-09T06:06:59;99759.31;;;13.72;100.00
53546;BME280;39432;51.902;10.844;2023-10-09T06:09:59;99783.53;;;13.90;100.00
53546;BME280;39432;51.902;10.844;2023-10-09T06:13:07;99784.28;;;14.32;100.00
53546;BME280;39432;51.902;10.844;2023-10-09T06:16:13;99785.66;;;14.49;100.00
53546;BME280;39432;51.902;10.844;2023-10-09T06:19:19;99781.53;;;14.37;100.00
53546;BME280;39432;51.902;10.844;2023-10-09T06:22:15;99779.59;;;14.42;100.00
53546;BME280;39432;51.902;10.844;2023-10-09T06:25:18;99785.09;;;14.63;100.00
53546;BME280;39432;51.902;10.844;2023-10-09T06:28:17;99780.63;;;14.72;100.00
53546;BME280;39432;51.902;10.844;2023-10-09T06:31:20;99774.31;;;14.71;100.00
53546;BME280;39432;51.902;10.844;2023-10-09T06:34:34;99781.69;;;14.91;100.00
53546;BME280;39432;51.902;10.844;2023-10-09T06:37:32;99776.69;;;14.93;100.00
53546;BME280;39432;51.902;10.844;2023-10-09T06:40:48;99783.69;;;14.70;100.00
53546;BME280;39432;51.902;10.844;2023-10-09T06:43:53;99790.41;;;15.09;100.00
53546;BME280;39432;51.902;10.844;2023-10-09T06:46:55;99790.28;;;14.80;100.00
53546;BME280;39432;51.902;10.844;2023-10-09T06:49:45;99788.31;;;14.85;100.00
53546;BME280;39432;51.902;10.844;2023-10-09T06:52:58;99797.03;;;15.08;100.00
53546;BME280;39432;51.902;10.844;2023-10-09T06:56:03;99788.84;;;14.92;100.00
53546;BME280;39432;51.902;10.844;2023-10-09T06:58:58;99801.59;;;14.78;100.00
53546;BME280;39432;51.902;10.844;2023-10-09T07:01:45;99805.97;;;14.79;100.00
53546;BME280;39432;51.902;10.844;2023-10-09T07:04:56;99802.94;;;14.81;100.00
53546;BME280;39432;51.902;10.844;2023-10-09T07:07:44;99806.00;;;14.69;100.00
53546;BME280;39432;51.902;10.844;2023-10-09T07:10:43;99821.72;;;14.68;100.00
53546;BME280;39432;51.902;10.844;2023-10-09T07:13:30;99826.97;;;14.49;100.00
53546;BME280;39432;51.902;10.844;2023-10-09T07:16:27;99814.28;;;14.59;100.00
53546;BME280;39432;51.902;10.844;2023-10-09T07:19:16;99819.25;;;14.62;100.00
53546;BME280;39432;51.902;10.844;2023-10-09T07:22:22;99838.78;;;14.60;100.00
53546;BME280;39432;51.902;10.844;2023-10-09T07:25:17;99842.91;;;14.68;100.00
53546;BME280;39432;51.902;10.844;2023-10-09T07:28:15;99839.06;;;14.59;100.00
53546;BME280;39432;51.902;10.844;2023-10-09T07:31:17;99838.53;;;14.62;100.00
53546;BME280;39432;51.902;10.844;2023-10-09T07:34:30;99835.22;;;14.55;100.00
53546;BME280;39432;51.902;10.844;2023-10-09T07:37:40;99837.97;;;14.49;100.00
53546;BME280;39432;51.902;10.844;2023-10-09T07:40:32;99823.38;;;14.59;100.00
53546;BME280;39432;51.902;10.844;2023-10-09T07:43:39;99818.66;;;14.75;100.00
53546;BME280;39432;51.902;10.844;2023-10-09T07:46:32;99804.38;;;14.63;100.00
53546;BME280;39432;51.902;10.844;2023-10-09T07:49:21;99806.53;;;14.66;100.00
53546;BME280;39432;51.902;10.844;2023-10-09T07:52:15;99815.34;;;14.78;100.00
53546;BME280;39432;51.902;10.844;2023-10-09T07:55:09;99829.09;;;14.83;100.00
53546;BME280;39432;51.902;10.844;2023-10-09T07:58:13;99836.25;;;14.89;100.00
53546;BME280;39432;51.902;10.844;2023-10-09T08:01:03;99835.16;;;14.80;100.00
53546;BME280;39432;51.902;10.844;2023-10-09T08:04:04;99825.81;;;14.76;100.00
53546;BME280;39432;51.902;10.844;2023-10-09T08:06:58;99822.50;;;14.79;100.00
53546;BME280;39432;51.902;10.844;2023-10-09T08:10:16;99818.06;;;14.83;100.00
53546;BME280;39432;51.902;10.844;2023-10-09T08:13:19;99823.56;;;14.83;100.00
53546;BME280;39432;51.902;10.844;2023-10-09T08:16:22;99813.91;;;14.91;100.00
53546;BME280;39432;51.902;10.844;2023-10-09T08:19:24;99821.88;;;15.02;100.00
53546;BME280;39432;51.902;10.844;2023-10-09T08:22:26;99832.34;;;15.06;100.00
53546;BME280;39432;51.902;10.844;2023-10-09T08:25:32;99841.13;;;15.08;100.00
53546;BME280;39432;51.902;10.844;2023-10-09T08:28:38;99835.88;;;15.16;100.00
53546;BME280;39432;51.902;10.844;2023-10-09T08:31:30;99819.06;;;15.13;100.00
53546;BME280;39432;51.902;10.844;2023-10-09T08:34:33;99806.97;;;15.03;100.00
53546;BME280;39432;51.902;10.844;2023-10-09T08:37:38;99790.63;;;15.27;100.00
53546;BME280;39432;51.902;10.844;2023-10-09T08:40:35;99778.97;;;15.36;100.00
53546;BME280;39432;51.902;10.844;2023-10-09T08:43:28;99753.59;;;15.39;100.00
53546;BME280;39432;51.902;10.844;2023-10-09T08:46:23;99740.06;;;15.37;100.00
53546;BME280;39432;51.902;10.844;2023-10-09T08:49:15;99728.50;;;15.40;100.00
53546;BME280;39432;51.902;10.844;2023-10-09T08:52:09;99723.78;;;15.41;100.00
53546;BME280;39432;51.902;10.844;2023-10-09T08:55:00;99727.50;;;15.60;100.00
53546;BME280;39432;51.902;10.844;2023-10-09T08:57:56;99721.50;;;15.87;100.00
53546;BME280;39432;51.902;10.844;2023-10-09T09:00:48;99721.47;;;15.92;100.00
53546;BME280;39432;51.902;10.844;2023-10-09T09:03:39;99714.84;;;15.93;100.00
53546;BME280;39432;51.902;10.844;2023-10-09T09:06:36;99709.41;;;16.12;100.00
53546;BME280;39432;51.902;10.844;2023-10-09T09:09:28;99710.94;;;16.23;100.00
53546;BME280;39432;51.902;10.844;2023-10-09T09:12:20;99720.53;;;16.31;100.00
53546;BME280;39432;51.902;10.844;2023-10-09T09:15:16;99711.50;;;16.49;100.00
53546;BME280;39432;51.902;10.844;2023-10-09T09:18:08;99706.44;;;16.56;100.00
53546;BME280;39432;51.902;10.844;2023-10-09T09:21:17;99687.84;;;16.62;100.00
53546;BME280;39432;51.902;10.844;2023-10-09T09:24:11;99684.94;;;16.77;100.00
53546;BME280;39432;51.902;10.844;2023-10-09T09:27:14;99668.78;;;16.84;100.00
53546;BME280;39432;51.902;10.844;2023-10-09T09:30:11;99672.53;;;16.94;100.00
53546;BME280;39432;51.902;10.844;2023-10-09T09:33:22;99668.38;;;17.15;100.00
53546;BME280;39432;51.902;10.844;2023-10-09T09:36:26;99662.72;;;17.39;100.00
53546;BME280;39432;51.902;10.844;2023-10-09T09:39:21;99638.16;;;17.51;100.00
53546;BME280;39432;51.902;10.844;2023-10-09T09:42:28;99636.75;;;17.54;100.00
53546;BME280;39432;51.902;10.844;2023-10-09T09:45:19;99630.41;;;17.67;100.00
53546;BME280;39432;51.902;10.844;2023-10-09T09:48:12;99620.72;;;17.70;100.00
53546;BME280;39432;51.902;10.844;2023-10-09T09:51:06;99607.53;;;17.80;100.00
53546;BME280;39432;51.902;10.844;2023-10-09T09:53:57;99595.44;;;17.90;100.00
53546;BME280;39432;51.902;10.844;2023-10-09T09:56:47;99606.69;;;17.80;100.00
53546;BME280;39432;51.902;10.844;2023-10-09T09:59:40;99604.44;;;17.82;100.00
53546;BME280;39432;51.902;10.844;2023-10-09T10:02:37;99588.25;;;17.75;100.00
53546;BME280;39432;51.902;10.844;2023-10-09T10:05:30;99596.84;;;17.74;100.00
53546;BME280;39432;51.902;10.844;2023-10-09T10:08:24;99606.19;;;17.78;100.00
53546;BME280;39432;51.902;10.844;2023-10-09T10:11:41;99585.56;;;17.84;100.00
53546;BME280;39432;51.902;10.844;2023-10-09T10:14:51;99593.09;;;17.97;100.00
53546;BME280;39432;51.902;10.844;2023-10-09T10:18:07;99598.09;;;17.95;100.00
53546;BME280;39432;51.902;10.844;2023-10-09T10:21:11;99601.38;;;17.83;100.00
53546;BME280;39432;51.902;10.844;2023-10-09T10:24:42;99617.59;;;17.57;100.00
53546;BME280;39432;51.902;10.844;2023-10-09T10:27:42;99630.81;;;17.60;100.00
53546;BME280;39432;51.902;10.844;2023-10-09T10:30:48;99652.41;;;17.77;100.00
53546;BME280;39432;51.902;10.844;2023-10-09T10:34:03;99667.28;;;17.49;100.00
53546;BME280;39432;51.902;10.844;2023-10-09T10:36:54;99676.66;;;17.15;100.00
53546;BME280;39432;51.902;10.844;2023-10-09T10:39:56;99686.34;;;17.12;100.00
53546;BME280;39432;51.902;10.844;2023-10-09T10:42:47;99703.75;;;17.13;100.00
53546;BME280;39432;51.902;10.844;2023-10-09T10:46:01;99736.50;;;16.87;100.00
53546;BME280;39432;51.902;10.844;2023-10-09T10:48:52;99767.59;;;16.74;100.00
53546;BME280;39432;51.902;10.844;2023-10-09T10:51:47;99788.78;;;16.54;100.00
53546;BME280;39432;51.902;10.844;2023-10-09T10:54:49;99797.22;;;16.10;100.00
53546;BME280;39432;51.902;10.844;2023-10-09T10:57:54;99819.09;;;16.01;100.00
53546;BME280;39432;51.902;10.844;2023-10-09T11:00:51;99848.41;;;15.92;100.00
53546;BME280;39432;51.902;10.844;2023-10-09T11:04:10;99858.38;;;15.93;100.00
53546;BME280;39432;51.902;10.844;2023-10-09T11:07:01;99859.41;;;15.97;100.00
53546;BME280;39432;51.902;10.844;2023-10-09T11:09:57;99849.03;;;15.84;100.00
53546;BME280;39432;51.902;10.844;2023-10-09T11:12:59;99839.16;;;15.78;100.00
53546;BME280;39432;51.902;10.844;2023-10-09T11:16:04;99853.41;;;15.90;100.00
53546;BME280;39432;51.902;10.844;2023-10-09T11:19:08;99853.13;;;15.87;100.00
53546;BME280;39432;51.902;10.844;2023-10-09T11:22:10;99863.19;;;15.72;100.00
53546;BME280;39432;51.902;10.844;2023-10-09T11:25:23;99872.00;;;15.74;100.00
53546;BME280;39432;51.902;10.844;2023-10-09T11:28:20;99876.66;;;15.79;100.00
53546;BME280;39432;51.902;10.844;2023-10-09T11:31:30;99874.97;;;15.83;100.00
53546;BME280;39432;51.902;10.844;2023-10-09T11:34:21;99886.50;;;15.95;100.00
53546;BME280;39432;51.902;10.844;2023-10-09T11:37:20;99884.94;;;15.79;100.00
53546;BME280;39432;51.902;10.844;2023-10-09T11:40:27;99902.59;;;15.78;100.00
53546;BME280;39432;51.902;10.844;2023-10-09T11:43:22;99900.03;;;15.92;100.00
53546;BME280;39432;51.902;10.844;2023-10-09T11:46:33;99901.66;;;15.93;100.00
53546;BME280;39432;51.902;10.844;2023-10-09T11:49:47;99897.50;;;16.00;100.00
53546;BME280;39432;51.902;10.844;2023-10-09T11:52:35;99908.69;;;16.14;100.00
53546;BME280;39432;51.902;10.844;2023-10-09T11:55:25;99911.94;;;16.26;100.00
53546;BME280;39432;51.902;10.844;2023-10-09T11:58:13;99892.56;;;16.31;100.00
53546;BME280;39432;51.902;10.844;2023-10-09T12:01:13;99894.03;;;16.19;100.00
53546;BME280;39432;51.902;10.844;2023-10-09T12:04:07;99881.13;;;16.48;100.00
53546;BME280;39432;51.902;10.844;2023-10-09T12:07:01;99884.97;;;16.47;100.00
53546;BME280;39432;51.902;10.844;2023-10-09T12:09:57;99877.88;;;16.36;100.00
53546;BME280;39432;51.902;10.844;2023-10-09T12:12:47;99890.88;;;16.65;100.00
53546;BME280;39432;51.902;10.844;2023-10-09T12:15:38;99881.50;;;16.66;100.00
53546;BME280;39432;51.902;10.844;2023-10-09T12:18:30;99886.22;;;16.65;100.00
53546;BME280;39432;51.902;10.844;2023-10-09T12:21:22;99886.97;;;16.76;100.00
53546;BME280;39432;51.902;10.844;2023-10-09T12:24:15;99871.50;;;16.70;100.00
53546;BME280;39432;51.902;10.844;2023-10-09T12:27:06;99865.44;;;16.68;100.00
53546;BME280;39432;51.902;10.844;2023-10-09T12:29:58;99879.25;;;16.39;100.00
53546;BME280;39432;51.902;10.844;2023-10-09T12:32:50;99880.03;;;16.44;100.00
53546;BME280;39432;51.902;10.844;2023-10-09T12:35:44;99888.38;;;16.39;100.00
53546;BME280;39432;51.902;10.844;2023-10-09T12:38:35;99894.97;;;16.43;100.00
53546;BME280;39432;51.902;10.844;2023-10-09T12:41:35;99900.56;;;16.33;100.00
53546;BME280;39432;51.902;10.844;2023-10-09T12:44:28;99909.88;;;16.42;100.00
53546;BME280;39432;51.902;10.844;2023-10-09T12:47:19;99906.16;;;16.23;100.00
53546;BME280;39432;51.902;10.844;2023-10-09T12:50:09;99908.19;;;16.12;100.00
53546;BME280;39432;51.902;10.844;2023-10-09T12:53:04;99921.91;;;16.56;100.00
53546;BME280;39432;51.902;10.844;2023-10-09T12:55:54;99926.75;;;16.70;100.00
53546;BME280;39432;51.902;10.844;2023-10-09T12:58:45;99918.59;;;16.89;100.00
53546;BME280;39432;51.902;10.844;2023-10-09T13:01:43;99907.00;;;17.16;100.00
53546;BME280;39432;51.902;10.844;2023-10-09T13:04:37;99889.28;;;17.17;100.00
53546;BME280;39432;51.902;10.844;2023-10-09T13:07:30;99875.44;;;16.93;100.00
53546;BME280;39432;51.902;10.844;2023-10-09T13:10:23;99879.97;;;17.07;100.00
53546;BME280;39432;51.902;10.844;2023-10-09T13:13:19;99878.38;;;16.77;100.00
53546;BME280;39432;51.902;10.844;2023-10-09T13:16:11;99881.59;;;17.08;100.00
53546;BME280;39432;51.902;10.844;2023-10-09T13:19:11;99871.06;;;16.86;100.00
53546;BME280;39432;51.902;10.844;2023-10-09T13:22:01;99877.09;;;17.18;100.00
53546;BME280;39432;51.902;10.844;2023-10-09T13:25:00;99864.63;;;16.96;100.00
53546;BME280;39432;51.902;10.844;2023-10-09T13:27:56;99866.66;;;16.56;100.00
53546;BME280;39432;51.902;10.844;2023-10-09T13:30:51;99890.22;;;16.49;100.00
53546;BME280;39432;51.902;10.844;2023-10-09T13:33:42;99904.69;;;16.65;100.00
53546;BME280;39432;51.902;10.844;2023-10-09T13:36:33;99903.28;;;16.38;100.00
53546;BME280;39432;51.902;10.844;2023-10-09T13:39:24;99909.13;;;16.31;100.00
53546;BME280;39432;51.902;10.844;2023-10-09T13:42:14;99922.88;;;16.37;100.00
53546;BME280;39432;51.902;10.844;2023-10-09T13:45:10;99924.59;;;16.32;100.00
53546;BME280;39432;51.902;10.844;2023-10-09T13:48:03;99928.72;;;16.35;100.00
53546;BME280;39432;51.902;10.844;2023-10-09T13:50:59;99922.13;;;16.26;100.00
53546;BME280;39432;51.902;10.844;2023-10-09T13:53:54;99929.34;;;16.27;100.00
53546;BME280;39432;51.902;10.844;2023-10-09T13:56:44;99937.00;;;16.35;100.00
53546;BME280;39432;51.902;10.844;2023-10-09T13:59:36;99941.44;;;16.31;100.00
53546;BME280;39432;51.902;10.844;2023-10-09T14:02:33;99946.69;;;16.32;100.00
53546;BME280;39432;51.902;10.844;2023-10-09T14:05:23;99950.22;;;16.43;100.00
53546;BME280;39432;51.902;10.844;2023-10-09T14:08:13;99953.56;;;16.35;100.00
53546;BME280;39432;51.902;10.844;2023-10-09T14:11:03;99954.06;;;16.42;100.00
53546;BME280;39432;51.902;10.844;2023-10-09T14:13:55;99963.03;;;16.24;100.00
53546;BME280;39432;51.902;10.844;2023-10-09T14:17:04;99970.78;;;16.22;100.00
53546;BME280;39432;51.902;10.844;2023-10-09T14:20:02;99976.19;;;16.37;100.00
53546;BME280;39432;51.902;10.844;2023-10-09T14:23:07;99985.06;;;16.34;100.00
53546;BME280;39432;51.902;10.844;2023-10-09T14:26:00;99987.16;;;16.47;100.00
53546;BME280;39432;51.902;10.844;2023-10-09T14:28:54;99983.25;;;16.53;100.00
53546;BME280;39432;51.902;10.844;2023-10-09T14:31:45;99973.34;;;16.47;100.00
53546;BME280;39432;51.902;10.844;2023-10-09T14:34:47;99970.06;;;16.45;100.00
53546;BME280;39432;51.902;10.844;2023-10-09T14:37:40;99973.91;;;16.49;100.00
53546;BME280;39432;51.902;10.844;2023-10-09T14:40:32;99982.94;;;16.60;100.00
53546;BME280;39432;51.902;10.844;2023-10-09T14:43:28;99974.44;;;16.51;100.00
53546;BME280;39432;51.902;10.844;2023-10-09T14:46:21;99965.88;;;16.48;100.00
53546;BME280;39432;51.902;10.844;2023-10-09T14:49:15;99968.78;;;16.67;100.00
53546;BME280;39432;51.902;10.844;2023-10-09T14:52:09;99961.63;;;16.71;100.00
53546;BME280;39432;51.902;10.844;2023-10-09T14:55:02;99953.41;;;16.55;100.00
53546;BME280;39432;51.902;10.844;2023-10-09T14:57:53;99974.84;;;16.69;100.00
53546;BME280;39432;51.902;10.844;2023-10-09T15:00:43;99956.16;;;16.60;100.00
53546;BME280;39432;51.902;10.844;2023-10-09T15:03:36;99973.97;;;16.78;100.00
53546;BME280;39432;51.902;10.844;2023-10-09T15:06:27;99948.97;;;16.59;100.00
53546;BME280;39432;51.902;10.844;2023-10-09T15:09:18;99946.22;;;16.59;100.00
53546;BME280;39432;51.902;10.844;2023-10-09T15:12:18;99952.22;;;16.67;100.00
53546;BME280;39432;51.902;10.844;2023-10-09T15:15:10;99956.63;;;16.68;100.00